createdAt,value
2023-04-12T00:01:00.286Z,86.19
2023-04-12T00:03:31.326Z,85.83
2023-04-12T00:05:57.948Z,85.88
2023-04-12T00:08:26.928Z,86.18
2023-04-12T00:10:53.677Z,85.38
2023-04-12T00:13:20.019Z,85.69
2023-04-12T00:15:46.574Z,85.43
2023-04-12T00:18:18.392Z,85.31
2023-04-12T00:20:47.044Z,85.50
2023-04-12T00:23:13.370Z,85.51
2023-04-12T00:25:40.072Z,85.45
2023-04-12T00:28:06.413Z,85.50
2023-04-12T00:30:32.945Z,85.63
2023-04-12T00:32:59.642Z,85.60
2023-04-12T00:35:26.087Z,85.79
2023-04-12T00:37:52.610Z,85.91
2023-04-12T00:40:19.039Z,86.61
2023-04-12T00:42:52.595Z,86.30
2023-04-12T00:45:19.797Z,86.41
2023-04-12T00:47:48.777Z,86.36
2023-04-12T00:50:15.105Z,85.82
2023-04-12T00:52:41.631Z,85.95
2023-04-12T00:55:08.781Z,86.52
2023-04-12T00:57:36.808Z,86.43
2023-04-12T01:00:04.460Z,86.00
2023-04-12T01:02:31.323Z,85.99
2023-04-12T01:04:57.755Z,86.31
2023-04-12T01:07:38.445Z,86.54
2023-04-12T01:10:05.559Z,86.28
2023-04-12T01:12:40.648Z,86.63
2023-04-12T01:15:12.397Z,86.19
2023-04-12T01:18:00.817Z,86.07
2023-04-12T01:20:29.219Z,86.39
2023-04-12T01:23:17.099Z,86.19
2023-04-12T01:25:49.640Z,86.16
2023-04-12T01:28:19.951Z,86.17
2023-04-12T01:30:48.428Z,86.26
2023-04-12T01:33:15.456Z,86.14
2023-04-12T01:35:42.215Z,86.13
2023-04-12T01:38:08.971Z,86.16
2023-04-12T01:40:36.967Z,86.26
2023-04-12T01:43:13.034Z,86.35
2023-04-12T01:45:39.684Z,86.88
2023-04-12T01:48:07.542Z,86.73
2023-04-12T01:50:52.415Z,86.47
2023-04-12T01:53:38.904Z,86.28
2023-04-12T01:56:07.934Z,86.18
2023-04-12T01:58:35.406Z,86.25
2023-04-12T02:01:02.317Z,86.47
2023-04-12T02:03:29.511Z,86.74
2023-04-12T02:05:58.890Z,86.90
2023-04-12T02:08:25.563Z,86.61
2023-04-12T02:10:51.899Z,86.46
2023-04-12T02:13:18.289Z,86.37
2023-04-12T02:15:44.619Z,86.54
2023-04-12T02:18:11.329Z,86.84
2023-04-12T02:20:38.434Z,86.88
2023-04-12T02:23:04.718Z,86.31
2023-04-12T02:25:31.193Z,86.79
2023-04-12T02:27:57.634Z,87.01
2023-04-12T02:30:24.619Z,87.17
2023-04-12T02:32:52.586Z,87.57
2023-04-12T02:35:31.843Z,87.27
2023-04-12T02:38:05.696Z,87.14
2023-04-12T02:40:32.135Z,87.16
2023-04-12T02:42:58.770Z,86.51
2023-04-12T02:45:25.275Z,86.13
2023-04-12T02:47:51.603Z,86.41
2023-04-12T02:50:20.773Z,86.51
2023-04-12T02:52:52.270Z,87.01
2023-04-12T02:55:18.671Z,87.04
2023-04-12T02:57:45.440Z,86.70
2023-04-12T03:00:12.444Z,86.48
2023-04-12T03:03:00.211Z,86.29
2023-04-12T03:05:28.202Z,86.57
2023-04-12T03:07:54.728Z,86.90
2023-04-12T03:10:25.937Z,86.53
2023-04-12T03:12:59.147Z,86.22
2023-04-12T03:15:32.988Z,86.53
2023-04-12T03:17:59.558Z,86.24
2023-04-12T03:20:29.259Z,86.14
2023-04-12T03:23:02.170Z,85.71
2023-04-12T03:25:29.247Z,85.81
2023-04-12T03:27:59.367Z,87.00
2023-04-12T03:30:33.777Z,87.83
2023-04-12T03:33:00.100Z,86.66
2023-04-12T03:35:26.689Z,87.41
2023-04-12T03:37:53.238Z,87.70
2023-04-12T03:40:19.875Z,87.54
2023-04-12T03:42:50.025Z,87.14
2023-04-12T03:45:16.498Z,87.08
2023-04-12T03:47:46.847Z,86.30
2023-04-12T03:50:13.823Z,85.93
2023-04-12T03:52:44.817Z,85.86
2023-04-12T03:55:11.360Z,86.41
2023-04-12T03:57:37.952Z,87.10
2023-04-12T04:00:05.945Z,86.67
2023-04-12T04:02:44.575Z,86.93
2023-04-12T04:05:11.398Z,86.38
2023-04-12T04:07:37.827Z,86.71
2023-04-12T04:10:04.396Z,86.70
2023-04-12T04:12:32.850Z,86.31
2023-04-12T04:14:59.295Z,87.47
2023-04-12T04:17:31.203Z,86.10
2023-04-12T04:19:57.611Z,86.07
2023-04-12T04:22:24.480Z,86.20
2023-04-12T04:24:51.764Z,85.97
2023-04-12T04:27:18.689Z,86.14
2023-04-12T04:29:44.906Z,85.74
2023-04-12T04:32:12.418Z,85.69
2023-04-12T04:34:39.214Z,85.71
2023-04-12T04:37:11.561Z,87.08
2023-04-12T04:39:40.727Z,86.68
2023-04-12T04:42:07.763Z,86.08
2023-04-12T04:44:38.590Z,85.80
2023-04-12T04:47:07.129Z,85.70
2023-04-12T04:49:33.582Z,85.84
2023-04-12T04:52:04.693Z,85.92
2023-04-12T04:54:31.122Z,85.64
2023-04-12T04:56:57.450Z,85.39
2023-04-12T04:59:24.021Z,85.30
2023-04-12T05:01:51.162Z,85.23
2023-04-12T05:04:17.853Z,85.99
2023-04-12T05:06:45.482Z,85.38
2023-04-12T05:09:11.880Z,85.59
2023-04-12T05:11:42.822Z,86.20
2023-04-12T05:14:12.432Z,86.39
2023-04-12T05:16:39.250Z,87.36
2023-04-12T05:19:06.251Z,86.77
2023-04-12T05:21:33.477Z,86.69
2023-04-12T05:23:59.861Z,86.62
2023-04-12T05:26:26.472Z,86.65
2023-04-12T05:28:53.239Z,87.48
2023-04-12T05:31:20.283Z,85.79
2023-04-12T05:33:47.415Z,85.37
2023-04-12T05:36:13.900Z,85.36
2023-04-12T05:38:40.899Z,85.34
2023-04-12T05:41:11.102Z,86.15
2023-04-12T05:43:37.969Z,86.08
2023-04-12T05:46:05.622Z,85.58
2023-04-12T05:48:32.086Z,85.47
2023-04-12T05:51:01.460Z,86.12
2023-04-12T05:53:27.922Z,86.09
2023-04-12T05:55:54.640Z,86.22
2023-04-12T05:58:22.155Z,85.92
2023-04-12T06:00:49.585Z,85.03
2023-04-12T06:03:16.363Z,84.86
2023-04-12T06:05:42.879Z,84.85
2023-04-12T06:08:09.350Z,85.11
2023-04-12T06:10:35.574Z,84.92
2023-04-12T06:13:02.041Z,85.33
2023-04-12T06:15:29.031Z,84.64
2023-04-12T06:17:55.395Z,84.76
2023-04-12T06:20:21.772Z,84.68
2023-04-12T06:22:48.546Z,84.59
2023-04-12T06:25:16.893Z,84.98
2023-04-12T06:27:45.499Z,85.32
2023-04-12T06:30:13.416Z,85.50
2023-04-12T06:32:39.854Z,85.91
2023-04-12T06:35:06.318Z,85.37
2023-04-12T06:37:33.005Z,86.72
2023-04-12T06:39:59.350Z,86.98
2023-04-12T06:42:25.618Z,86.07
2023-04-12T06:44:55.249Z,85.56
2023-04-12T06:47:21.638Z,87.33
2023-04-12T06:49:47.959Z,85.78
2023-04-12T06:52:14.285Z,85.92
2023-04-12T06:54:40.559Z,86.47
2023-04-12T06:57:10.245Z,85.89
2023-04-12T06:59:36.566Z,86.20
2023-04-12T07:02:02.839Z,86.97
2023-04-12T07:04:29.269Z,87.62
2023-04-12T07:06:55.753Z,86.07
2023-04-12T07:09:22.128Z,85.45
2023-04-12T07:11:48.392Z,87.05
2023-04-12T07:14:14.943Z,87.63
2023-04-12T07:16:42.018Z,85.62
2023-04-12T07:19:08.471Z,84.47
2023-04-12T07:21:34.906Z,85.14
2023-04-12T07:24:01.156Z,84.83
2023-04-12T07:26:27.409Z,86.29
2023-04-12T07:28:53.937Z,84.50
2023-04-12T07:31:20.271Z,84.15
2023-04-12T07:33:46.669Z,83.84
2023-04-12T07:36:13.322Z,83.50
2023-04-12T07:38:39.638Z,83.44
2023-04-12T07:41:06.081Z,83.35
2023-04-12T07:43:32.512Z,83.08
2023-04-12T07:45:59.215Z,84.22
2023-04-12T07:48:25.684Z,83.06
2023-04-12T07:50:52.264Z,82.97
2023-04-12T07:53:22.588Z,82.44
2023-04-12T07:55:49.361Z,83.08
2023-04-12T07:58:16.465Z,83.89
2023-04-12T08:00:43.348Z,81.81
2023-04-12T08:03:10.955Z,81.35
2023-04-12T08:05:37.874Z,81.44
2023-04-12T08:08:04.294Z,82.17
2023-04-12T08:10:30.573Z,80.92
2023-04-12T08:12:57.424Z,80.70
2023-04-12T08:15:24.297Z,81.77
2023-04-12T08:17:50.839Z,81.86
2023-04-12T08:20:17.346Z,79.07
2023-04-12T08:22:44.434Z,79.46
2023-04-12T08:25:10.765Z,80.40
2023-04-12T08:27:39.276Z,80.83
2023-04-12T08:30:06.020Z,79.62
2023-04-12T08:32:32.349Z,78.60
2023-04-12T08:34:59.223Z,78.66
2023-04-12T08:37:25.450Z,78.46
2023-04-12T08:39:51.799Z,77.47
2023-04-12T08:42:18.345Z,77.02
2023-04-12T08:44:45.191Z,76.99
2023-04-12T08:47:11.512Z,75.75
2023-04-12T08:49:38.069Z,76.60
2023-04-12T08:52:05.401Z,75.76
2023-04-12T08:54:32.094Z,75.28
2023-04-12T08:56:59.474Z,75.27
2023-04-12T08:59:26.649Z,74.86
2023-04-12T09:01:54.203Z,74.36
2023-04-12T09:04:20.711Z,73.69
2023-04-12T09:06:47.429Z,72.73
2023-04-12T09:09:13.706Z,75.14
2023-04-12T09:11:40.383Z,72.71
2023-04-12T09:14:23.345Z,72.02
2023-04-12T09:16:50.482Z,71.56
2023-04-12T09:19:29.961Z,71.89
2023-04-12T09:21:56.309Z,71.48
2023-04-12T09:24:22.611Z,73.84
2023-04-12T09:27:09.151Z,72.14
2023-04-12T09:29:35.842Z,71.19
2023-04-12T09:32:06.580Z,71.45
2023-04-12T09:34:34.133Z,72.73
2023-04-12T09:37:11.559Z,71.40
2023-04-12T09:39:40.194Z,70.50
2023-04-12T09:42:29.235Z,71.47
2023-04-12T09:44:58.033Z,70.37
2023-04-12T09:47:38.012Z,70.36
2023-04-12T09:50:05.455Z,70.36
2023-04-12T09:52:38.595Z,69.79
2023-04-12T09:55:11.513Z,69.35
2023-04-12T09:57:41.545Z,69.44
2023-04-12T10:00:09.178Z,68.67
2023-04-12T10:02:39.714Z,69.02
2023-04-12T10:05:07.083Z,71.86
2023-04-12T10:07:38.862Z,72.51
2023-04-12T10:10:05.601Z,70.35
2023-04-12T10:12:35.143Z,69.98
2023-04-12T10:15:05.865Z,68.69
2023-04-12T10:17:34.177Z,68.36
2023-04-12T10:20:01.441Z,67.97
2023-04-12T10:22:28.208Z,68.17
2023-04-12T10:24:54.679Z,68.07
2023-04-12T10:27:27.632Z,70.97
2023-04-12T10:29:54.199Z,73.24
2023-04-12T10:32:20.517Z,72.20
2023-04-12T10:34:51.469Z,67.01
2023-04-12T10:37:17.892Z,66.18
2023-04-12T10:39:45.420Z,66.12
2023-04-12T10:42:15.598Z,65.84
2023-04-12T10:44:42.053Z,66.13
2023-04-12T10:47:08.530Z,67.43
2023-04-12T10:49:34.856Z,65.81
2023-04-12T10:52:01.436Z,65.93
2023-04-12T10:54:27.908Z,69.52
2023-04-12T10:56:54.362Z,73.39
2023-04-12T10:59:51.306Z,69.87
2023-04-12T11:02:17.854Z,71.53
2023-04-12T11:05:06.617Z,65.06
2023-04-12T11:07:53.553Z,63.92
2023-04-12T11:10:38.981Z,68.91
2023-04-12T11:13:09.125Z,70.67
2023-04-12T11:15:37.880Z,68.53
2023-04-12T11:18:11.270Z,65.85
2023-04-12T11:20:38.868Z,65.20
2023-04-12T11:23:05.500Z,65.01
2023-04-12T11:25:32.318Z,64.37
2023-04-12T11:27:59.816Z,65.87
2023-04-12T11:30:27.847Z,64.83
2023-04-12T11:32:55.022Z,66.07
2023-04-12T11:35:21.613Z,69.01
2023-04-12T11:37:48.027Z,69.99
2023-04-12T11:40:14.541Z,66.11
2023-04-12T11:42:41.237Z,66.27
2023-04-12T11:45:15.903Z,66.43
2023-04-12T11:47:45.222Z,65.04
2023-04-12T11:50:11.777Z,68.80
2023-04-12T11:52:38.183Z,72.33
2023-04-12T11:55:05.845Z,73.35
2023-04-12T11:57:32.590Z,74.21
2023-04-12T11:59:59.082Z,70.14
2023-04-12T12:02:29.101Z,67.65
2023-04-12T12:04:58.467Z,65.86
2023-04-12T12:07:25.242Z,66.19
2023-04-12T12:09:52.685Z,71.66
2023-04-12T12:12:19.039Z,66.30
2023-04-12T12:14:45.371Z,65.56
2023-04-12T12:17:15.662Z,64.53
2023-04-12T12:19:43.549Z,67.16
2023-04-12T12:22:11.138Z,65.70
2023-04-12T12:24:58.168Z,65.75
2023-04-12T12:27:33.027Z,66.82
2023-04-12T12:30:00.935Z,66.68
2023-04-12T12:32:31.822Z,64.34
2023-04-12T12:34:58.139Z,70.17
2023-04-12T12:37:25.933Z,68.98
2023-04-12T12:40:04.594Z,69.88
2023-04-12T12:42:31.889Z,67.72
2023-04-12T12:44:58.213Z,67.07
2023-04-12T12:47:24.872Z,72.69
2023-04-12T12:49:51.476Z,65.70
2023-04-12T12:52:18.111Z,67.22
2023-04-12T12:54:46.794Z,67.90
2023-04-12T12:57:13.846Z,63.65
2023-04-12T12:59:40.117Z,63.82
2023-04-12T13:02:06.624Z,63.46
2023-04-12T13:04:34.407Z,60.39
2023-04-12T13:07:01.072Z,61.18
2023-04-12T13:09:27.416Z,60.09
2023-04-12T13:11:53.884Z,60.00
2023-04-12T13:14:20.310Z,60.63
2023-04-12T13:16:46.849Z,63.76
2023-04-12T13:19:13.469Z,65.52
2023-04-12T13:21:39.805Z,62.97
2023-04-12T13:24:06.126Z,64.54
2023-04-12T13:26:32.916Z,65.32
2023-04-12T13:28:59.341Z,60.48
2023-04-12T13:31:25.775Z,60.76
2023-04-12T13:33:52.410Z,64.42
2023-04-12T13:36:18.761Z,62.08
2023-04-12T13:38:45.055Z,63.17
2023-04-12T13:41:11.448Z,66.18
2023-04-12T13:43:37.876Z,63.24
2023-04-12T13:46:04.374Z,63.80
2023-04-12T13:48:30.806Z,63.84
2023-04-12T13:50:57.178Z,64.52
2023-04-12T13:53:23.611Z,64.99
2023-04-12T13:55:50.253Z,68.38
2023-04-12T13:58:16.891Z,63.19
2023-04-12T14:00:43.312Z,64.40
2023-04-12T14:03:10.236Z,59.83
2023-04-12T14:05:36.902Z,59.76
2023-04-12T14:08:03.420Z,58.94
2023-04-12T14:10:29.814Z,61.13
2023-04-12T14:12:56.421Z,64.10
2023-04-12T14:15:22.658Z,61.84
2023-04-12T14:17:49.595Z,63.94
2023-04-12T14:20:18.765Z,63.84
2023-04-12T14:22:45.761Z,66.45
2023-04-12T14:25:12.582Z,59.50
2023-04-12T14:27:39.235Z,59.92
2023-04-12T14:30:06.119Z,59.09
2023-04-12T14:32:32.995Z,55.87
2023-04-12T14:34:59.425Z,58.23
2023-04-12T14:37:26.071Z,56.28
2023-04-12T14:39:53.011Z,48.20
2023-04-12T14:42:19.537Z,48.49
2023-04-12T14:44:45.832Z,46.92
2023-04-12T14:47:12.497Z,50.54
2023-04-12T14:49:38.928Z,56.54
2023-04-12T14:52:05.491Z,53.08
2023-04-12T14:54:33.200Z,52.17
2023-04-12T14:56:59.840Z,47.79
2023-04-12T14:59:26.400Z,45.78
2023-04-12T15:01:53.163Z,53.33
2023-04-12T15:04:19.872Z,50.52
2023-04-12T15:06:46.486Z,52.37
2023-04-12T15:09:13.486Z,56.98
2023-04-12T15:11:39.829Z,50.98
2023-04-12T15:14:06.152Z,53.32
2023-04-12T15:16:32.871Z,57.20
2023-04-12T15:19:01.468Z,54.69
2023-04-12T15:21:31.035Z,52.39
2023-04-12T15:23:57.726Z,51.97
2023-04-12T15:26:24.355Z,50.26
2023-04-12T15:28:50.640Z,48.48
2023-04-12T15:31:17.114Z,45.91
2023-04-12T15:33:43.418Z,46.38
2023-04-12T15:36:09.823Z,48.22
2023-04-12T15:38:42.324Z,47.14
2023-04-12T15:41:08.710Z,49.26
2023-04-12T15:43:35.103Z,56.58
2023-04-12T15:46:01.854Z,56.97
2023-04-12T15:48:28.150Z,53.71
2023-04-12T15:50:54.951Z,51.65
2023-04-12T15:53:22.423Z,59.05
2023-04-12T15:55:49.288Z,58.67
2023-04-12T15:58:15.598Z,54.66
2023-04-12T16:00:42.512Z,53.94
2023-04-12T16:03:09.614Z,54.90
2023-04-12T16:05:36.321Z,61.36
2023-04-12T16:08:02.767Z,57.04
2023-04-12T16:10:29.238Z,54.44
2023-04-12T16:12:55.707Z,57.35
2023-04-12T16:15:22.217Z,55.06
2023-04-12T16:17:49.150Z,52.94
2023-04-12T16:20:15.766Z,54.76
2023-04-12T16:22:43.851Z,57.44
2023-04-12T16:25:10.250Z,56.36
2023-04-12T16:27:36.633Z,53.39
2023-04-12T16:30:04.772Z,56.24
2023-04-12T16:32:31.180Z,60.16
2023-04-12T16:34:57.805Z,59.88
2023-04-12T16:37:24.290Z,60.35
2023-04-12T16:39:50.780Z,57.82
2023-04-12T16:42:17.087Z,56.08
2023-04-12T16:44:43.820Z,57.61
2023-04-12T16:47:10.314Z,62.58
2023-04-12T16:49:36.722Z,63.05
2023-04-12T16:52:03.401Z,63.22
2023-04-12T16:54:29.806Z,62.60
2023-04-12T16:56:56.312Z,64.39
2023-04-12T16:59:23.103Z,61.62
2023-04-12T17:01:49.452Z,56.49
2023-04-12T17:04:16.170Z,58.06
2023-04-12T17:06:43.303Z,57.49
2023-04-12T17:09:09.839Z,58.82
2023-04-12T17:11:36.405Z,64.15
2023-04-12T17:14:03.037Z,63.01
2023-04-12T17:16:29.432Z,59.36
2023-04-12T17:18:56.360Z,57.49
2023-04-12T17:21:23.045Z,56.56
2023-04-12T17:23:49.690Z,57.35
2023-04-12T17:26:16.472Z,57.49
2023-04-12T17:28:43.112Z,56.98
2023-04-12T17:31:10.045Z,57.42
2023-04-12T17:33:36.684Z,59.10
2023-04-12T17:36:03.612Z,60.32
2023-04-12T17:38:30.329Z,59.77
2023-04-12T17:40:56.753Z,60.29
2023-04-12T17:43:23.753Z,60.49
2023-04-12T17:45:50.521Z,61.59
2023-04-12T17:48:17.193Z,60.71
2023-04-12T17:50:43.774Z,60.30
2023-04-12T17:53:10.779Z,59.93
2023-04-12T17:55:37.530Z,59.76
2023-04-12T17:58:04.153Z,61.54
2023-04-12T18:00:30.946Z,63.78
2023-04-12T18:02:57.423Z,64.70
2023-04-12T18:05:24.355Z,64.07
2023-04-12T18:07:50.753Z,64.58
2023-04-12T18:10:19.674Z,63.89
2023-04-12T18:12:47.546Z,62.02
2023-04-12T18:15:14.466Z,62.24
2023-04-12T18:17:41.255Z,62.95
2023-04-12T18:20:08.660Z,64.13
2023-04-12T18:22:36.452Z,64.82
2023-04-12T18:25:03.508Z,64.02
2023-04-12T18:27:35.406Z,63.17
2023-04-12T18:30:02.535Z,63.58
2023-04-12T18:32:29.277Z,64.89
2023-04-12T18:34:55.755Z,64.74
2023-04-12T18:37:22.154Z,63.25
2023-04-12T18:39:50.593Z,63.06
2023-04-12T18:42:18.768Z,64.33
2023-04-12T18:44:45.900Z,64.12
2023-04-12T18:47:12.289Z,64.90
2023-04-12T18:49:39.287Z,65.03
2023-04-12T18:52:06.402Z,64.90
2023-04-12T18:54:33.656Z,65.30
2023-04-12T18:57:00.302Z,65.14
2023-04-12T18:59:27.135Z,65.23
2023-04-12T19:01:54.023Z,65.63
2023-04-12T19:04:21.653Z,65.33
2023-04-12T19:06:48.659Z,65.33
2023-04-12T19:09:15.646Z,65.69
2023-04-12T19:11:42.749Z,66.59
2023-04-12T19:14:09.485Z,65.92
2023-04-12T19:16:36.056Z,66.13
2023-04-12T19:19:03.152Z,66.74
2023-04-12T19:21:30.014Z,66.72
2023-04-12T19:23:57.221Z,66.99
2023-04-12T19:26:24.029Z,67.33
2023-04-12T19:28:50.395Z,68.07
2023-04-12T19:31:17.280Z,68.37
2023-04-12T19:33:44.162Z,68.25
2023-04-12T19:36:10.838Z,68.32
2023-04-12T19:38:39.844Z,69.48
2023-04-12T19:41:07.972Z,69.63
2023-04-12T19:43:35.785Z,69.79
2023-04-12T19:46:03.133Z,69.66
2023-04-12T19:48:30.936Z,69.89
2023-04-12T19:50:57.942Z,69.90
2023-04-12T19:53:24.425Z,70.19
2023-04-12T19:55:54.654Z,70.93
2023-04-12T19:58:21.096Z,70.19
2023-04-12T20:00:49.768Z,69.72
2023-04-12T20:03:16.948Z,70.15
2023-04-12T20:05:43.490Z,70.38
2023-04-12T20:08:10.157Z,70.46
2023-04-12T20:10:37.248Z,70.43
2023-04-12T20:13:03.617Z,69.89
2023-04-12T20:15:29.979Z,70.57
2023-04-12T20:17:57.171Z,70.52
2023-04-12T20:20:23.880Z,70.12
2023-04-12T20:22:50.214Z,69.72
2023-04-12T23:35:21.533Z,76.93
2023-04-12T23:37:50.993Z,76.89
2023-04-12T23:40:28.263Z,76.47
2023-04-12T23:42:56.505Z,76.05
2023-04-12T23:45:23.996Z,76.12
2023-04-12T23:48:09.544Z,76.77
2023-04-12T23:50:38.345Z,77.92
2023-04-12T23:53:05.227Z,79.73
2023-04-12T23:55:32.079Z,79.27
2023-04-12T23:58:01.738Z,77.85
